createdAt,value
2019-02-25T00:01:02.191Z,24.67
2019-02-25T00:03:33.043Z,25.70
2019-02-25T00:06:02.182Z,25.43
2019-02-25T00:08:31.389Z,26.13
2019-02-25T00:11:00.964Z,25.93
2019-02-25T00:13:30.577Z,27.03
2019-02-25T00:16:01.214Z,27.70
2019-02-25T00:18:30.848Z,26.47
2019-02-25T00:21:00.553Z,27.23
2019-02-25T00:23:29.754Z,27.50
2019-02-25T00:25:59.299Z,27.27
2019-02-25T00:28:28.964Z,28.77
2019-02-25T00:30:58.147Z,27.87
2019-02-25T00:33:27.684Z,29.23
2019-02-25T00:35:57.306Z,29.17
2019-02-25T00:38:26.523Z,29.73
2019-02-25T00:40:56.114Z,29.27
2019-02-25T00:43:25.335Z,30.60
2019-02-25T00:45:54.864Z,30.60
2019-02-25T00:48:24.487Z,30.77
2019-02-25T00:50:53.701Z,30.80
2019-02-25T00:53:23.333Z,30.40
2019-02-25T00:55:52.521Z,30.37
2019-02-25T00:58:21.670Z,30.27
2019-02-25T01:00:52.050Z,30.03
2019-02-25T01:03:21.275Z,31.20
2019-02-25T01:05:50.470Z,32.03
2019-02-25T01:08:20.100Z,30.53
2019-02-25T01:10:49.327Z,30.50
2019-02-25T01:13:19.126Z,31.77
2019-02-25T01:15:48.714Z,30.53
2019-02-25T01:18:18.003Z,30.33
2019-02-25T01:20:47.520Z,31.43
2019-02-25T01:23:16.727Z,29.10
2019-02-25T01:25:45.835Z,31.03
2019-02-25T01:28:15.377Z,30.37
2019-02-25T01:30:45.277Z,30.80
2019-02-25T01:33:14.907Z,30.83
2019-02-25T01:35:44.108Z,31.13
2019-02-25T01:38:13.214Z,30.97
2019-02-25T01:40:42.726Z,31.70
2019-02-25T01:43:12.370Z,31.70
2019-02-25T01:45:41.975Z,31.47
2019-02-25T01:48:11.487Z,32.63
2019-02-25T01:50:40.583Z,32.53
2019-02-25T01:53:09.685Z,32.27
2019-02-25T01:55:38.815Z,31.07
2019-02-25T01:58:07.966Z,32.70
2019-02-25T02:00:37.083Z,31.57
2019-02-25T02:03:06.210Z,32.43
2019-02-25T02:05:35.744Z,32.23
2019-02-25T02:08:05.406Z,31.83
2019-02-25T02:10:35.024Z,33.00
2019-02-25T02:13:13.751Z,32.90
2019-02-25T02:15:35.786Z,32.13
2019-02-25T02:18:05.391Z,32.30
2019-02-25T02:20:35.102Z,32.47
2019-02-25T02:23:04.850Z,32.10
2019-02-25T02:25:34.050Z,31.77
2019-02-25T02:28:03.703Z,32.17
2019-02-25T02:30:32.910Z,32.00
2019-02-25T02:33:02.054Z,32.27
2019-02-25T02:35:31.605Z,32.77
2019-02-25T02:38:01.244Z,33.60
2019-02-25T02:40:30.436Z,33.20
2019-02-25T02:43:00.121Z,32.60
2019-02-25T02:45:37.078Z,32.53
2019-02-25T02:48:13.152Z,33.37
2019-02-25T02:50:42.753Z,32.17
2019-02-25T02:53:12.501Z,33.50
2019-02-25T02:55:41.703Z,31.10
2019-02-25T02:58:11.243Z,33.40
2019-02-25T03:00:41.045Z,32.73
2019-02-25T03:03:10.246Z,32.73
2019-02-25T03:05:39.782Z,33.07
2019-02-25T03:08:08.979Z,33.30
2019-02-25T03:10:38.507Z,33.07
2019-02-25T03:13:08.802Z,33.37
2019-02-25T03:15:38.998Z,31.83
2019-02-25T03:18:08.118Z,32.63
2019-02-25T03:20:37.697Z,32.63
2019-02-25T03:23:07.334Z,33.00
2019-02-25T03:25:36.865Z,33.47
2019-02-25T03:28:06.419Z,32.23
2019-02-25T03:30:35.560Z,32.77
2019-02-25T03:33:05.156Z,33.00
2019-02-25T03:35:34.374Z,32.33
2019-02-25T03:38:03.886Z,36.03
2019-02-25T03:40:33.094Z,34.27
2019-02-25T03:43:02.830Z,43.03
2019-02-25T03:45:33.438Z,39.33
2019-02-25T03:48:02.707Z,41.93
2019-02-25T03:50:31.834Z,36.53
2019-02-25T03:53:01.363Z,35.30
2019-02-25T03:55:31.002Z,35.00
2019-02-25T03:58:00.234Z,34.13
2019-02-25T04:00:29.917Z,34.43
2019-02-25T04:02:59.646Z,34.07
2019-02-25T04:05:29.294Z,32.33
2019-02-25T04:07:58.515Z,33.70
2019-02-25T04:10:28.178Z,35.40
2019-02-25T04:12:57.382Z,61.47
2019-02-25T04:15:34.525Z,38.47
2019-02-25T04:18:04.155Z,46.07
2019-02-25T04:20:33.783Z,44.17
2019-02-25T04:23:02.986Z,40.27
2019-02-25T04:25:32.107Z,35.73
2019-02-25T04:28:01.727Z,35.20
2019-02-25T04:30:31.368Z,34.20
2019-02-25T04:33:01.046Z,34.73
2019-02-25T04:35:30.275Z,35.57
2019-02-25T04:37:59.378Z,35.67
2019-02-25T04:40:29.915Z,34.13
2019-02-25T04:42:59.139Z,35.03
2019-02-25T04:45:28.259Z,34.83
2019-02-25T04:47:57.378Z,33.43
2019-02-25T04:50:27.019Z,34.93
2019-02-25T04:52:56.623Z,34.53
2019-02-25T04:55:25.871Z,35.37
2019-02-25T04:57:55.063Z,34.53
2019-02-25T05:00:24.267Z,36.23
2019-02-25T05:02:53.887Z,35.27
2019-02-25T05:05:23.508Z,36.73
2019-02-25T05:07:53.141Z,35.10
2019-02-25T05:10:22.779Z,33.63
2019-02-25T05:13:00.686Z,34.33
2019-02-25T05:15:30.785Z,35.60
2019-02-25T05:18:00.423Z,36.47
2019-02-25T05:20:30.126Z,37.40
2019-02-25T05:22:59.816Z,37.87
2019-02-25T05:25:29.537Z,39.17
2019-02-25T05:27:58.720Z,39.17
2019-02-25T05:30:27.935Z,41.20
2019-02-25T05:32:57.553Z,41.13
2019-02-25T05:35:27.306Z,42.47
2019-02-25T05:37:56.642Z,40.37
2019-02-25T05:40:26.259Z,42.37
2019-02-25T05:42:55.896Z,41.23
2019-02-25T05:45:25.682Z,41.80
2019-02-25T05:47:55.288Z,42.70
2019-02-25T05:50:24.935Z,40.33
2019-02-25T05:52:54.569Z,41.23
2019-02-25T05:55:23.846Z,43.00
2019-02-25T05:57:53.371Z,41.50
2019-02-25T06:00:25.154Z,42.40
2019-02-25T06:02:54.351Z,42.40
2019-02-25T06:05:23.478Z,42.63
2019-02-25T06:07:54.056Z,42.70
2019-02-25T06:10:23.171Z,43.73
2019-02-25T06:12:52.711Z,41.90
2019-02-25T06:15:22.109Z,41.13
2019-02-25T06:17:51.655Z,40.50
2019-02-25T06:20:21.372Z,39.83
2019-02-25T06:22:51.283Z,41.17
2019-02-25T06:25:21.037Z,41.53
2019-02-25T06:27:50.456Z,41.07
2019-02-25T06:30:20.166Z,41.57
2019-02-25T06:32:49.886Z,40.37
2019-02-25T06:35:19.666Z,40.63
2019-02-25T06:37:49.508Z,38.17
2019-02-25T06:40:19.339Z,37.57
2019-02-25T06:42:49.052Z,38.80
2019-02-25T06:45:19.338Z,39.03
2019-02-25T06:47:49.048Z,39.00
2019-02-25T06:50:18.314Z,37.77
2019-02-25T06:52:48.890Z,37.47
2019-02-25T06:55:18.190Z,38.10
2019-02-25T06:57:48.815Z,37.40
2019-02-25T07:00:18.122Z,37.77
2019-02-25T07:02:47.759Z,35.53
2019-02-25T07:05:34.637Z,35.10
2019-02-25T07:08:10.423Z,35.73
2019-02-25T07:10:59.073Z,36.17
2019-02-25T07:13:56.318Z,35.00
2019-02-25T07:16:39.926Z,38.10
2019-02-25T07:19:17.598Z,34.03
2019-02-25T07:21:53.579Z,35.50
2019-02-25T07:24:57.519Z,35.03
2019-02-25T07:27:37.957Z,32.97
2019-02-25T07:30:23.095Z,35.10
2019-02-25T07:33:10.239Z,35.83
2019-02-25T07:35:58.981Z,36.37
2019-02-25T07:38:50.290Z,38.27
2019-02-25T07:41:35.891Z,36.33
2019-02-25T07:44:25.294Z,33.07
2019-02-25T07:47:03.516Z,33.27
2019-02-25T07:50:10.896Z,30.67
2019-02-25T07:52:50.935Z,32.27
2019-02-25T07:55:38.257Z,30.83
2019-02-25T07:58:24.609Z,30.60
2019-02-25T08:01:16.018Z,32.50
2019-02-25T08:04:02.976Z,32.17
2019-02-25T08:06:51.370Z,32.97
2019-02-25T08:09:28.673Z,32.43
2019-02-25T08:12:17.396Z,33.70
2019-02-25T08:15:05.685Z,33.10
2019-02-25T08:17:44.525Z,31.90
2019-02-25T08:20:34.495Z,32.90
2019-02-25T08:23:13.394Z,31.73
2019-02-25T08:26:11.256Z,33.93
2019-02-25T08:28:51.347Z,32.37
2019-02-25T08:31:33.641Z,30.33
2019-02-25T08:34:29.371Z,32.93
2019-02-25T08:37:35.426Z,33.00
2019-02-25T08:40:28.459Z,31.03
2019-02-25T08:43:01.898Z,31.47
2019-02-25T08:45:45.776Z,33.13
2019-02-25T08:48:37.589Z,32.20
2019-02-25T08:51:07.319Z,31.20
2019-02-25T08:53:39.387Z,31.80
2019-02-25T08:56:09.249Z,32.37
2019-02-25T08:58:39.107Z,32.27
2019-02-25T09:01:08.695Z,32.07
2019-02-25T09:03:38.007Z,31.87
2019-02-25T09:06:07.871Z,30.13
2019-02-25T09:08:37.688Z,31.70
2019-02-25T09:11:13.965Z,31.70
2019-02-25T09:13:39.916Z,30.33
2019-02-25T09:16:09.540Z,29.70
2019-02-25T09:18:39.207Z,29.27
2019-02-25T09:21:08.841Z,29.00
2019-02-25T09:23:38.146Z,28.83
2019-02-25T09:26:07.686Z,29.80
2019-02-25T09:28:36.891Z,28.83
2019-02-25T09:31:06.113Z,29.73
2019-02-25T09:33:36.340Z,29.10
2019-02-25T09:36:05.970Z,28.23
2019-02-25T09:38:35.745Z,27.73
2019-02-25T09:41:05.026Z,26.03
2019-02-25T09:43:34.567Z,25.33
2019-02-25T09:46:04.250Z,25.23
2019-02-25T09:48:33.459Z,24.83
2019-02-25T09:51:03.041Z,23.60
2019-02-25T09:53:32.851Z,24.57
2019-02-25T09:56:02.139Z,24.83
2019-02-25T09:58:31.746Z,24.60
2019-02-25T10:01:01.602Z,24.27
2019-02-25T10:03:30.870Z,23.90
2019-02-25T10:06:00.094Z,23.73
2019-02-25T10:08:29.697Z,23.33
2019-02-25T10:11:00.090Z,23.10
2019-02-25T10:13:30.612Z,23.30
2019-02-25T10:16:00.360Z,23.73
2019-02-25T10:18:30.049Z,23.00
2019-02-25T10:20:59.771Z,22.47
2019-02-25T10:23:29.416Z,22.30
2019-02-25T10:25:59.059Z,22.03
2019-02-25T10:28:28.262Z,20.47
2019-02-25T10:30:57.814Z,21.60
2019-02-25T10:33:27.457Z,23.07
2019-02-25T10:35:56.759Z,22.57
2019-02-25T10:38:25.883Z,21.67
2019-02-25T10:40:55.113Z,20.60
2019-02-25T10:43:26.103Z,21.10
2019-02-25T10:45:55.628Z,21.33
2019-02-25T10:48:25.874Z,19.83
2019-02-25T11:00:27.324Z,17.70
2019-02-25T11:02:58.193Z,17.23
2019-02-25T11:05:30.459Z,16.57
2019-02-25T11:08:00.470Z,16.50
2019-02-25T11:10:33.676Z,15.80
2019-02-25T11:13:04.293Z,14.77
2019-02-25T11:15:35.225Z,14.67
2019-02-25T11:18:06.327Z,14.73
2019-02-25T11:20:37.734Z,15.77
2019-02-25T11:23:07.654Z,15.30
2019-02-25T11:25:37.377Z,15.73
2019-02-25T11:28:08.920Z,15.50
2019-02-25T11:30:38.015Z,16.57
2019-02-25T11:33:07.671Z,14.57
2019-02-25T11:35:39.277Z,12.83
2019-02-25T11:38:08.235Z,12.83
2019-02-25T11:40:38.398Z,13.30
2019-02-25T11:43:08.781Z,11.83
2019-02-25T11:45:38.910Z,11.80
2019-02-25T11:48:08.034Z,11.33
2019-02-25T11:50:37.795Z,11.23
2019-02-25T11:53:07.099Z,10.63
2019-02-25T11:55:36.424Z,10.60
2019-02-25T11:58:05.994Z,10.83
2019-02-25T12:00:35.766Z,10.77
2019-02-25T12:03:06.080Z,10.53
2019-02-25T12:05:35.702Z,9.90
2019-02-25T12:08:05.566Z,9.57
2019-02-25T12:10:34.962Z,9.23
2019-02-25T12:13:04.614Z,9.20
2019-02-25T12:15:34.303Z,8.73
2019-02-25T12:18:04.118Z,8.87
2019-02-25T12:20:33.812Z,8.40
2019-02-25T12:23:03.447Z,9.37
2019-02-25T12:25:33.069Z,8.40
2019-02-25T12:28:02.706Z,9.03
2019-02-25T12:30:32.515Z,9.37
2019-02-25T12:33:01.770Z,8.80
2019-02-25T12:35:31.362Z,8.57
2019-02-25T12:38:00.592Z,8.10
2019-02-25T12:40:30.219Z,8.20
2019-02-25T12:42:59.881Z,7.60
2019-02-25T12:45:29.154Z,7.20
2019-02-25T12:47:58.687Z,6.87
2019-02-25T12:50:28.312Z,5.40
2019-02-25T12:52:57.942Z,4.00
2019-02-25T12:55:27.705Z,3.50
2019-02-25T12:57:57.437Z,4.57
2019-02-25T13:00:26.646Z,3.70
2019-02-25T13:02:56.544Z,3.07
2019-02-25T13:05:26.500Z,2.47
2019-02-25T13:07:55.739Z,2.13
2019-02-25T13:10:24.898Z,2.30
2019-02-25T13:12:54.522Z,2.20
2019-02-25T13:15:24.385Z,2.13
2019-02-25T13:17:53.699Z,2.37
2019-02-25T13:20:22.834Z,1.90
2019-02-25T13:22:52.360Z,1.80
2019-02-25T13:25:21.612Z,1.90
2019-02-25T13:27:52.024Z,1.67
2019-02-25T13:30:22.338Z,2.33
2019-02-25T13:32:52.000Z,1.93
2019-02-25T13:35:22.018Z,2.10
2019-02-25T13:37:51.744Z,2.03
2019-02-25T13:40:22.036Z,1.73
2019-02-25T13:42:51.724Z,2.07
2019-02-25T13:45:21.496Z,2.37
2019-02-25T13:47:51.235Z,2.00
2019-02-25T13:50:21.260Z,1.77
2019-02-25T13:52:50.954Z,3.20
2019-02-25T13:55:20.889Z,2.00
2019-02-25T13:57:50.247Z,2.33
2019-02-25T14:00:20.286Z,1.80
2019-02-25T14:02:50.204Z,1.93
2019-02-25T14:05:21.068Z,2.00
2019-02-25T14:07:50.491Z,2.17
2019-02-25T14:10:22.742Z,2.00
2019-02-25T14:12:52.632Z,2.30
2019-02-25T14:15:22.210Z,2.37
2019-02-25T14:17:52.076Z,2.40
2019-02-25T14:20:21.461Z,3.13
2019-02-25T14:22:51.212Z,2.50
2019-02-25T14:25:21.469Z,2.33
2019-02-25T14:27:51.419Z,2.90
2019-02-25T14:30:21.988Z,3.50
2019-02-25T14:32:53.414Z,7.03
2019-02-25T14:35:28.003Z,3.43
2019-02-25T14:37:59.079Z,2.80
2019-02-25T14:40:31.579Z,2.70
2019-02-25T14:43:03.267Z,2.73
2019-02-25T14:45:34.062Z,2.73
2019-02-25T14:48:05.542Z,2.70
2019-02-25T14:50:34.888Z,3.47
2019-02-25T14:53:06.620Z,3.30
2019-02-25T14:55:36.382Z,3.57
2019-02-25T14:58:07.410Z,3.70
2019-02-25T15:00:38.278Z,4.17
2019-02-25T15:03:08.151Z,4.03
2019-02-25T15:05:37.450Z,4.10
2019-02-25T15:08:06.691Z,3.77
2019-02-25T15:10:38.397Z,4.13
2019-02-25T15:13:08.855Z,3.87
2019-02-25T15:15:41.159Z,4.20
2019-02-25T15:18:10.905Z,4.67
2019-02-25T15:20:40.250Z,4.63
2019-02-25T15:23:12.466Z,4.83
2019-02-25T15:25:43.179Z,4.93
2019-02-25T15:28:14.144Z,4.80
2019-02-25T15:30:44.210Z,5.40
2019-02-25T15:33:13.658Z,4.83
2019-02-25T15:35:43.855Z,4.90
2019-02-25T15:38:13.795Z,4.60
2019-02-25T15:40:55.872Z,5.50
2019-02-25T15:43:26.387Z,5.90
2019-02-25T15:45:56.339Z,5.60
2019-02-25T15:48:27.265Z,6.33
2019-02-25T15:50:58.607Z,6.57
2019-02-25T15:53:27.923Z,6.60
2019-02-25T15:55:59.323Z,7.10
2019-02-25T15:58:28.013Z,6.90
2019-02-25T16:00:57.329Z,6.33
2019-02-25T16:03:28.938Z,6.73
2019-02-25T16:06:01.570Z,7.13
2019-02-25T16:08:31.250Z,7.40
2019-02-25T16:11:00.700Z,7.20
2019-02-25T16:13:29.978Z,7.80
2019-02-25T16:15:59.404Z,7.67
2019-02-25T16:18:28.676Z,8.10
2019-02-25T16:20:59.760Z,8.47
2019-02-25T16:23:32.020Z,9.43
2019-02-25T16:26:02.112Z,11.73
2019-02-25T16:28:35.586Z,11.33
2019-02-25T16:31:06.068Z,13.80
2019-02-25T16:33:36.719Z,12.90
2019-02-25T16:36:07.930Z,13.20
2019-02-25T16:38:37.795Z,13.77
2019-02-25T16:41:10.022Z,17.30
2019-02-25T16:43:39.020Z,17.60
2019-02-25T16:46:09.237Z,20.00
2019-02-25T16:48:39.484Z,20.43
2019-02-25T16:51:10.184Z,22.73
2019-02-25T16:53:41.416Z,23.37
2019-02-25T16:56:12.303Z,23.60
2019-02-25T16:58:43.122Z,24.87
2019-02-25T17:01:12.738Z,23.50
2019-02-25T17:03:43.793Z,24.43
2019-02-25T17:06:15.394Z,23.87
2019-02-25T17:08:46.594Z,25.57
2019-02-25T17:11:17.475Z,25.93
2019-02-25T17:13:47.723Z,26.57
2019-02-25T17:16:18.634Z,27.50
2019-02-25T17:18:49.292Z,28.10
2019-02-25T17:21:20.662Z,27.27
2019-02-25T17:23:51.604Z,28.27
2019-02-25T17:26:21.395Z,28.00
2019-02-25T17:28:56.291Z,29.87
2019-02-25T17:31:38.675Z,29.57
2019-02-25T17:34:12.225Z,30.27
2019-02-25T17:36:43.122Z,28.63
2019-02-25T17:39:14.607Z,31.23
2019-02-25T17:41:44.846Z,35.43
2019-02-25T17:44:14.709Z,28.87
2019-02-25T17:46:44.866Z,29.67
2019-02-25T17:49:16.764Z,29.93
2019-02-25T17:51:46.062Z,29.47
2019-02-25T17:54:16.864Z,28.43
2019-02-25T17:56:47.462Z,29.47
2019-02-25T17:59:17.417Z,30.77
2019-02-25T18:01:48.450Z,30.73
2019-02-25T18:04:24.388Z,29.77
2019-02-25T18:06:53.638Z,32.93
2019-02-25T18:09:24.871Z,32.83
2019-02-25T18:11:54.428Z,34.03
2019-02-25T18:14:23.653Z,34.40
2019-02-25T18:16:53.503Z,35.10
2019-02-25T18:19:24.929Z,36.97
2019-02-25T18:21:58.155Z,35.73
2019-02-25T18:24:27.497Z,36.43
2019-02-25T18:26:58.613Z,35.93
2019-02-25T18:29:28.093Z,37.70
2019-02-25T18:31:57.731Z,36.97
2019-02-25T18:34:28.042Z,38.40
2019-02-25T18:36:58.606Z,39.97
2019-02-25T18:39:29.470Z,40.80
2019-02-25T18:41:59.378Z,41.53
2019-02-25T18:44:29.335Z,43.63
2019-02-25T18:46:59.889Z,47.33
2019-02-25T18:49:30.325Z,44.70
2019-02-25T18:52:01.358Z,44.80
2019-02-25T18:54:33.258Z,43.30
2019-02-25T18:57:03.361Z,45.73
2019-02-25T18:59:34.405Z,43.53
2019-02-25T19:02:05.381Z,47.13
2019-02-25T19:04:37.156Z,46.23
2019-02-25T19:07:07.932Z,47.90
2019-02-25T19:09:38.090Z,48.13
2019-02-25T19:12:09.435Z,50.40
2019-02-25T19:14:39.194Z,48.60
2019-02-25T19:17:08.582Z,49.50
2019-02-25T19:19:38.980Z,50.77
2019-02-25T19:22:10.782Z,52.10
2019-02-25T19:24:42.273Z,50.87
2019-02-25T19:27:12.939Z,51.20
2019-02-25T19:29:45.072Z,52.93
2019-02-25T19:32:14.745Z,52.83
2019-02-25T19:34:44.088Z,52.10
2019-02-25T19:37:14.521Z,54.10
2019-02-25T19:39:46.847Z,52.97
2019-02-25T19:42:18.160Z,53.17
2019-02-25T19:44:47.918Z,54.23
2019-02-25T19:47:19.347Z,64.50
2019-02-25T19:49:49.151Z,56.43
2019-02-25T19:52:19.358Z,53.87
2019-02-25T19:54:50.714Z,52.20
2019-02-25T19:57:23.228Z,53.37
2019-02-25T19:59:53.074Z,53.87
2019-02-25T20:02:24.777Z,52.53
2019-02-25T20:04:54.460Z,53.17
2019-02-25T20:07:26.479Z,50.80
2019-02-25T20:09:55.258Z,52.47
2019-02-25T20:12:26.427Z,53.37
2019-02-25T20:14:56.117Z,50.73
2019-02-25T20:17:28.270Z,52.60
2019-02-25T20:19:57.474Z,51.83
2019-02-25T20:22:26.782Z,53.43
2019-02-25T20:24:57.768Z,54.80
2019-02-25T20:27:26.979Z,54.80
2019-02-25T20:29:57.967Z,53.43
2019-02-25T20:32:27.739Z,52.27
2019-02-25T20:34:58.828Z,53.53
2019-02-25T20:37:29.175Z,53.60
2019-02-25T20:40:00.617Z,51.40
2019-02-25T20:42:30.703Z,54.80
2019-02-25T20:45:02.676Z,53.17
2019-02-25T20:47:34.867Z,53.43
2019-02-25T20:50:05.585Z,52.47
2019-02-25T20:52:36.221Z,56.03
2019-02-25T20:55:08.112Z,59.97
2019-02-25T20:57:38.170Z,56.70
2019-02-25T21:00:11.031Z,50.63
2019-02-25T21:02:41.674Z,50.63
2019-02-25T21:05:14.247Z,50.40
2019-02-25T21:07:42.799Z,51.10
2019-02-25T21:10:12.272Z,50.47
2019-02-25T21:12:43.148Z,50.73
2019-02-25T21:15:14.044Z,48.87
2019-02-25T21:17:43.672Z,51.47
2019-02-25T21:20:13.135Z,50.03
2019-02-25T21:22:44.476Z,48.33
2019-02-25T21:25:14.014Z,47.17
2019-02-25T21:27:43.615Z,46.93
2019-02-25T21:30:15.323Z,49.10
2019-02-25T21:32:47.520Z,47.67
2019-02-25T21:35:17.622Z,47.33
2019-02-25T21:37:50.072Z,46.53
2019-02-25T21:40:22.105Z,46.83
2019-02-25T21:42:53.742Z,46.63
2019-02-25T21:45:24.225Z,48.17
2019-02-25T21:47:56.027Z,51.93
2019-02-25T21:50:28.395Z,48.47
2019-02-25T21:52:56.692Z,47.53
2019-02-25T21:55:28.569Z,47.20
2019-02-25T21:58:00.143Z,45.37
2019-02-25T22:00:31.900Z,45.30
2019-02-25T22:02:59.692Z,46.00
2019-02-25T22:05:30.495Z,47.30
2019-02-25T22:08:01.913Z,46.50
2019-02-25T22:10:34.161Z,45.17
2019-02-25T22:13:06.694Z,45.33
2019-02-25T22:15:34.003Z,45.90
2019-02-25T22:18:06.350Z,45.37
2019-02-25T22:20:39.731Z,46.10
2019-02-25T22:23:08.017Z,44.43
2019-02-25T22:25:38.072Z,46.33
2019-02-25T22:28:09.988Z,46.30
2019-02-25T22:30:39.403Z,45.67
2019-02-25T22:33:23.065Z,44.97
2019-02-25T22:35:42.491Z,45.10
2019-02-25T22:38:11.528Z,44.73
2019-02-25T22:40:40.742Z,44.73
2019-02-25T22:43:12.063Z,44.90
2019-02-25T22:45:42.062Z,44.57
2019-02-25T22:48:14.064Z,47.13
2019-02-25T22:50:42.878Z,44.80
2019-02-25T22:53:12.506Z,45.43
2019-02-25T22:55:44.792Z,44.67
2019-02-25T22:58:14.948Z,46.53
2019-02-25T23:00:50.623Z,47.63
2019-02-25T23:03:24.917Z,46.73
2019-02-25T23:05:55.207Z,47.33
2019-02-25T23:08:26.049Z,47.93
2019-02-25T23:10:55.419Z,49.13
2019-02-25T23:13:27.050Z,45.23
2019-02-25T23:15:56.481Z,46.80
2019-02-25T23:18:28.027Z,46.27
2019-02-25T23:21:00.121Z,46.40
2019-02-25T23:23:28.670Z,46.47
2019-02-25T23:25:58.922Z,47.03
2019-02-25T23:28:30.342Z,46.77
2019-02-25T23:30:59.394Z,47.20
2019-02-25T23:33:29.155Z,47.83
2019-02-25T23:35:58.495Z,49.57
2019-02-25T23:38:28.166Z,46.93
2019-02-25T23:41:01.284Z,48.60
2019-02-25T23:43:28.835Z,48.27
2019-02-25T23:46:00.116Z,48.43
2019-02-25T23:48:32.963Z,47.97
2019-02-25T23:51:01.247Z,49.70
2019-02-25T23:53:32.761Z,48.83
2019-02-25T23:56:02.049Z,49.80
2019-02-25T23:58:31.811Z,48.60
